createdAt,value
2022-11-15T00:02:14.703Z,28.8
2022-11-15T00:07:40.743Z,28.8
2022-11-15T00:13:10.467Z,28.8
2022-11-15T00:18:32.787Z,28.8
2022-11-15T00:24:11.217Z,28.7
2022-11-15T00:29:33.452Z,28.7
2022-11-15T00:35:13.579Z,28.6
2022-11-15T00:40:50.113Z,28.6
2022-11-15T00:46:29.881Z,28.6
2022-11-15T00:51:37.827Z,28.6
2022-11-15T00:57:15.375Z,28.6
2022-11-15T01:02:52.693Z,28.6
2022-11-15T01:08:16.954Z,28.5
2022-11-15T01:13:54.107Z,28.5
2022-11-15T01:19:31.784Z,28.5
2022-11-15T01:25:10.219Z,28.4
2022-11-15T01:30:47.456Z,28.4
2022-11-15T01:36:25.121Z,28.4
2022-11-15T01:42:02.415Z,28.4
2022-11-15T01:47:24.050Z,28.4
2022-11-15T01:53:01.769Z,28.3
2022-11-15T01:58:39.520Z,28.3
2022-11-15T02:04:02.018Z,28.5
2022-11-15T02:09:09.020Z,29.3
2022-11-15T02:14:30.393Z,29.9
2022-11-15T02:20:07.048Z,30.9
2022-11-15T02:25:28.877Z,31.7
2022-11-15T02:30:50.900Z,32.5
2022-11-15T02:36:27.301Z,33.3
2022-11-15T02:41:48.766Z,34.1
2022-11-15T02:47:26.499Z,34.8
2022-11-15T02:52:32.580Z,35.6
2022-11-15T02:57:54.121Z,36.3
2022-11-15T03:03:32.229Z,37.1
2022-11-15T03:08:54.425Z,37.8
2022-11-15T03:14:16.139Z,38.4
2022-11-15T03:19:22.599Z,39
2022-11-15T03:24:43.183Z,39.6
2022-11-15T03:30:04.580Z,40.2
2022-11-15T03:35:30.092Z,40.8
2022-11-15T03:40:57.395Z,40.9
2022-11-15T03:46:34.130Z,41.1
2022-11-15T03:52:11.419Z,41.1
2022-11-15T03:57:48.462Z,41.1
2022-11-15T04:02:40.028Z,41.2
2022-11-15T04:08:18.999Z,41.2
2022-11-15T04:13:24.612Z,41.1
2022-11-15T04:18:46.323Z,41.2
2022-11-15T04:24:24.720Z,41.1
2022-11-15T04:29:51.968Z,41.1
2022-11-15T04:35:29.983Z,41.1
2022-11-15T04:41:12.439Z,41
2022-11-15T04:46:48.558Z,41
2022-11-15T04:52:10.994Z,40.9
2022-11-15T04:57:48.928Z,40.9
2022-11-15T05:03:22.033Z,40.9
2022-11-15T05:08:44.456Z,40.9
2022-11-15T05:14:22.485Z,40.8
2022-11-15T05:19:46.195Z,40.8
2022-11-15T05:25:08.590Z,40.7
2022-11-15T05:30:46.607Z,40.6
2022-11-15T05:36:08.477Z,40.6
2022-11-15T05:47:07.677Z,40.5
2022-11-15T05:52:43.964Z,40.4
2022-11-15T05:58:10.814Z,40.4
2022-11-15T06:03:33.988Z,40.4
2022-11-15T06:08:56.478Z,40.3
2022-11-15T06:14:34.114Z,40.3
2022-11-15T06:20:02.446Z,40.2
2022-11-15T06:25:38.938Z,40.1
2022-11-15T06:31:15.886Z,40.1
2022-11-15T06:36:38.424Z,40
2022-11-15T06:42:15.099Z,39.9
2022-11-15T06:47:52.505Z,39.9
2022-11-15T06:53:30.261Z,39.8
2022-11-15T06:59:07.043Z,39.8
2022-11-15T07:04:45.690Z,39.7
2022-11-15T07:10:23.069Z,39.6
2022-11-15T07:16:05.634Z,39.6
2022-11-15T07:21:27.925Z,39.5
2022-11-15T07:26:51.477Z,39.5
2022-11-15T07:32:14.243Z,39.4
2022-11-15T07:37:51.814Z,39.4
2022-11-15T07:43:29.824Z,39.1
2022-11-15T07:49:17.563Z,39
2022-11-15T07:54:40.318Z,38.9
2022-11-15T08:00:03.119Z,38.8
2022-11-15T08:05:41.900Z,38.8
2022-11-15T08:11:20.165Z,38.7
2022-11-15T08:17:03.586Z,38.6
2022-11-15T08:22:41.033Z,38.5
2022-11-15T08:28:20.167Z,38.4
2022-11-15T08:33:57.691Z,38.4
2022-11-15T08:39:50.027Z,38.3
2022-11-15T08:45:29.157Z,38.2
2022-11-15T08:51:07.337Z,38.1
2022-11-15T08:56:47.353Z,38
2022-11-15T09:02:25.437Z,37.9
2022-11-15T09:08:18.978Z,37.9
2022-11-15T09:14:15.294Z,37.8
2022-11-15T09:20:00.954Z,37.7
2022-11-15T09:25:43.081Z,37.6
2022-11-15T09:31:55.290Z,37.5
2022-11-15T09:37:33.163Z,37.4
2022-11-15T09:43:17.169Z,37.4
2022-11-15T09:48:56.581Z,37.3
2022-11-15T09:55:41.602Z,37.2
2022-11-15T10:01:35.582Z,37.1
2022-11-15T10:07:18.751Z,37.1
2022-11-15T10:13:20.727Z,37
2022-11-15T10:18:58.549Z,36.9
2022-11-15T10:24:37.191Z,36.9
2022-11-15T10:30:04.320Z,36.8
2022-11-15T10:35:44.299Z,36.7
2022-11-15T10:43:02.392Z,36.7
2022-11-15T10:49:19.205Z,36.5
2022-11-15T10:55:01.830Z,36.5
2022-11-15T11:00:44.609Z,36.4
2022-11-15T11:06:29.407Z,36.4
2022-11-15T11:12:42.470Z,36.3
2022-11-15T11:18:20.211Z,36.2
2022-11-15T11:23:48.455Z,36.2
2022-11-15T11:29:26.839Z,36.1
2022-11-15T11:35:07.786Z,36.1
2022-11-15T11:40:30.619Z,36
2022-11-15T11:46:08.060Z,35.9
2022-11-15T11:51:46.224Z,35.9
2022-11-15T11:57:25.178Z,35.9
2022-11-15T12:03:09.406Z,35.8
2022-11-15T12:08:52.666Z,35.8
2022-11-15T12:14:30.558Z,35.7
2022-11-15T12:20:08.686Z,35.8
2022-11-15T12:25:45.341Z,35.6
2022-11-15T12:31:36.985Z,35.4
2022-11-15T12:37:14.795Z,35.4
2022-11-15T12:42:24.242Z,35.3
2022-11-15T12:47:31.224Z,35.3
2022-11-15T12:52:53.652Z,35.2
2022-11-15T12:58:31.409Z,35.1
2022-11-15T13:04:09.867Z,35.1
2022-11-15T13:09:46.933Z,35.1
2022-11-15T13:15:28.002Z,35
2022-11-15T13:21:06.229Z,34.9
2022-11-15T13:26:28.356Z,34.9
2022-11-15T13:31:49.793Z,34.9
2022-11-15T13:38:00.907Z,34.8
2022-11-15T13:43:39.177Z,34.8
2022-11-15T13:49:18.614Z,34.7
2022-11-15T13:55:00.417Z,34.6
2022-11-15T14:00:38.439Z,34.6
2022-11-15T14:06:15.526Z,34.5
2022-11-15T14:11:59.672Z,34.5
2022-11-15T14:17:21.912Z,34.4
2022-11-15T14:22:44.203Z,34.4
2022-11-15T14:28:09.815Z,34.3
2022-11-15T14:33:31.343Z,34.3
2022-11-15T14:39:08.745Z,34.3
2022-11-15T14:44:16.083Z,34.3
2022-11-15T14:49:38.633Z,34.3
2022-11-15T14:55:06.888Z,34.1
2022-11-15T15:00:33.869Z,34.1
2022-11-15T15:05:57.525Z,34.1
2022-11-15T15:11:45.383Z,34.1
2022-11-15T15:17:11.818Z,34.1
2022-11-15T15:22:43.591Z,34
2022-11-15T15:27:50.671Z,34
2022-11-15T15:33:13.537Z,33.9
2022-11-15T15:38:35.895Z,33.9
2022-11-15T15:44:00.148Z,33.9
2022-11-15T15:49:23.203Z,33.8
2022-11-15T15:54:53.329Z,33.8
2022-11-15T15:59:47.639Z,33.8
2022-11-15T16:04:55.101Z,33.8
2022-11-15T16:10:31.759Z,33.8
2022-11-15T16:15:53.987Z,33.8
2022-11-15T16:21:16.930Z,33.7
2022-11-15T16:26:39.363Z,33.7
2022-11-15T16:32:03.847Z,33.7
2022-11-15T16:37:37.483Z,33.7
2022-11-15T16:42:44.079Z,33.6
2022-11-15T16:48:10.832Z,33.6
2022-11-15T16:53:33.402Z,33.5
2022-11-15T16:58:55.220Z,33.4
2022-11-15T17:04:02.587Z,33.1
2022-11-15T17:09:29.580Z,33
2022-11-15T17:14:35.915Z,32.9
2022-11-15T17:19:58.144Z,32.9
2022-11-15T17:25:20.348Z,32.8
2022-11-15T17:30:47.645Z,32.8
2022-11-15T17:35:54.321Z,32.6
2022-11-15T17:41:32.438Z,32.5
2022-11-15T17:46:55.025Z,32.4
2022-11-15T17:52:22.798Z,32.3
2022-11-15T17:58:00.888Z,32.3
2022-11-15T18:03:30.585Z,32.2
2022-11-15T18:09:10.059Z,32.1
2022-11-15T18:14:32.397Z,32.1
2022-11-15T18:20:14.720Z,32.1
2022-11-15T18:25:52.640Z,32.1
2022-11-15T18:31:32.277Z,31.9
2022-11-15T18:36:40.258Z,31.7
2022-11-15T18:42:22.787Z,31.6
2022-11-15T18:47:45.778Z,31.5
2022-11-15T18:53:08.625Z,31.4
2022-11-15T18:58:46.347Z,31.3
2022-11-15T19:04:29.466Z,31.2
2022-11-15T19:10:11.986Z,31.1
2022-11-15T19:15:48.804Z,31.1
2022-11-15T19:21:31.357Z,30.8
2022-11-15T19:27:08.795Z,29.9
2022-11-15T19:32:46.511Z,28.4
2022-11-15T19:38:29.940Z,27.6
2022-11-15T19:44:12.480Z,27.2
2022-11-15T19:49:41.540Z,26.9
2022-11-15T19:55:06.822Z,26.7
2022-11-15T20:00:44.619Z,26.6
2022-11-15T20:06:08.862Z,26.5
2022-11-15T20:11:31.281Z,26.4
2022-11-15T20:17:11.105Z,27.9
2022-11-15T20:22:49.981Z,31.1
2022-11-15T20:28:28.043Z,33.8
2022-11-15T20:34:05.777Z,35.7
2022-11-15T20:39:28.262Z,36.9
2022-11-15T20:45:11.617Z,37.8
2022-11-15T20:51:24.980Z,38.5
2022-11-15T20:56:47.518Z,39.3
2022-11-15T21:02:11.292Z,40
2022-11-15T21:07:55.210Z,40.6
2022-11-15T21:13:17.170Z,41.3
2022-11-15T21:18:57.484Z,41.4
2022-11-15T21:24:25.520Z,41.5
2022-11-15T21:30:03.420Z,41.6
2022-11-15T21:35:47.093Z,41.6
2022-11-15T21:41:10.332Z,41.6
2022-11-15T21:46:48.198Z,41.6
2022-11-15T21:52:15.976Z,41.6
2022-11-15T21:57:07.002Z,41.6
2022-11-15T22:02:30.114Z,41.5
2022-11-15T22:08:13.394Z,41.5
2022-11-15T22:13:37.006Z,41.4
2022-11-15T22:19:16.326Z,41.4
2022-11-15T22:25:08.277Z,41.4
2022-11-15T22:30:04.619Z,41.3
2022-11-15T22:35:26.756Z,41.3
2022-11-15T22:41:35.285Z,41.2
2022-11-15T22:47:11.884Z,41.2
2022-11-15T22:52:50.431Z,41.1
2022-11-15T22:58:33.429Z,41.1
2022-11-15T23:03:43.987Z,41
2022-11-15T23:09:22.138Z,40.9
2022-11-15T23:15:00.019Z,40.9
2022-11-15T23:21:01.815Z,40.8
2022-11-15T23:26:39.564Z,40.8
2022-11-15T23:32:19.191Z,40.7
2022-11-15T23:38:01.915Z,40.7
2022-11-15T23:43:45.991Z,40.6
2022-11-15T23:49:24.674Z,40.6
2022-11-15T23:55:01.262Z,40.4
